Time;durP1;ratioP1;P1;durP2;ratioP2;P2;SDS_P1;SDS_P2;PMS_P1;PMS_P2;Temp;Humidity;BMP_temperature;BMP_pressure;BME280_temperature;BME280_humidity;BME280_pressure;Samples;Min_cycle;Max_cycle;Signal;HPM_P1;HPM_P2
2022/08/18 01:23:52;;;;;;;16.17;9.20;;;19.20;64.50;;;;;;5064214;28;20577;-52
2022/08/18 01:26:18;;;;;;;12.20;11.00;;;19.10;99.90;;;;;;5068093;28;20412;-52
2022/08/18 01:28:46;;;;;;;13.63;12.20;;;19.00;83.60;;;;;;5067618;28;20396;-51
2022/08/18 01:31:28;;;;;;;13.67;12.17;;;18.90;93.80;;;;;;5065467;28;20431;-51
2022/08/18 01:33:53;;;;;;;14.20;12.30;;;18.80;99.90;;;;;;5062849;28;20439;-51
2022/08/18 01:36:20;;;;;;;17.70;13.53;;;18.70;99.90;;;;;;5059986;28;20436;-51
2022/08/18 01:38:49;;;;;;;20.30;13.37;;;18.60;99.90;;;;;;5066858;28;20197;-51
2022/08/18 01:41:17;;;;;;;14.53;12.53;;;18.50;99.90;;;;;;5064425;28;20439;-53
2022/08/18 01:43:44;;;;;;;14.13;12.40;;;18.50;99.90;;;;;;5062568;28;20821;-53
2022/08/18 01:46:10;;;;;;;15.30;13.77;;;18.40;99.90;;;;;;5067706;28;20408;-53
2022/08/18 01:48:36;;;;;;;16.03;14.33;;;18.30;99.90;;;;;;5066978;28;20424;-57
2022/08/18 01:51:04;;;;;;;16.23;13.30;;;18.30;99.90;;;;;;5067922;28;20642;-56
2022/08/18 01:53:30;;;;;;;18.17;15.27;;;18.30;99.90;;;;;;5067832;28;20427;-57
2022/08/18 01:55:56;;;;;;;19.63;13.83;;;18.30;99.90;;;;;;5067870;28;20407;-57
2022/08/18 01:58:26;;;;;;;17.83;13.90;;;18.30;99.90;;;;;;5067806;28;20491;-53
2022/08/18 02:00:57;;;;;;;15.60;14.00;;;18.30;99.90;;;;;;5065888;28;20444;-53
2022/08/18 02:03:27;;;;;;;18.80;15.40;;;18.20;99.90;;;;;;5062472;28;20468;-53
2022/08/18 02:05:57;;;;;;;17.70;14.40;;;18.20;99.90;;;;;;5053095;28;20516;-53
2022/08/18 02:08:23;;;;;;;18.07;16.10;;;18.20;99.90;;;;;;5052289;28;20443;-53
2022/08/18 02:10:48;;;;;;;18.17;14.70;;;18.10;99.90;;;;;;5052278;28;20441;-53
2022/08/18 02:13:14;;;;;;;16.73;14.70;;;18.10;99.90;;;;;;5052752;28;20640;-52
2022/08/18 02:15:41;;;;;;;18.40;15.30;;;18.10;99.90;;;;;;5051482;28;20232;-53
2022/08/18 02:18:20;;;;;;;17.00;15.30;;;18.00;99.90;;;;;;5052052;28;20186;-52
2022/08/18 02:20:46;;;;;;;18.77;15.73;;;17.90;99.90;;;;;;5049817;28;22039;-52
2022/08/18 02:23:13;;;;;;;26.40;17.73;;;17.90;99.90;;;;;;5055782;28;20495;-55
2022/08/18 02:25:41;;;;;;;18.17;16.27;;;17.90;99.90;;;;;;5055668;28;20444;-55
2022/08/18 02:28:07;;;;;;;17.13;15.40;;;17.80;99.90;;;;;;5051832;28;20451;-59
2022/08/18 02:30:36;;;;;;;19.77;16.43;;;17.80;99.90;;;;;;5050857;28;21212;-59
2022/08/18 02:33:06;;;;;;;22.70;16.67;;;17.80;99.90;;;;;;5051075;28;20182;-52
2022/08/18 02:35:31;;;;;;;19.13;17.07;;;17.70;99.90;;;;;;5038635;28;20449;-52
2022/08/18 02:38:04;;;;;;;18.97;16.90;;;17.70;99.90;;;;;;5046768;28;20563;-52
2022/08/18 02:40:32;;;;;;;18.77;16.27;;;17.70;99.90;;;;;;5037408;28;20217;-52
2022/08/18 02:43:03;;;;;;;20.47;18.20;;;17.70;99.90;;;;;;5041004;28;20500;-59
2022/08/18 02:45:29;;;;;;;18.90;16.80;;;17.70;99.90;;;;;;5038536;28;20452;-59
2022/08/18 02:47:55;;;;;;;17.70;15.30;;;17.70;99.90;;;;;;5038420;28;20475;-59
2022/08/18 02:50:21;;;;;;;20.60;17.63;;;17.70;99.90;;;;;;5039405;28;20194;-59
2022/08/18 02:52:48;;;;;;;21.67;17.67;;;17.60;99.90;;;;;;5037714;28;20448;-59
2022/08/18 02:55:14;;;;;;;23.20;18.73;;;17.60;99.90;;;;;;5037776;28;21080;-59
2022/08/18 02:57:43;;;;;;;19.87;17.60;;;17.60;99.90;;;;;;5037970;28;21003;-59
2022/08/18 03:00:12;;;;;;;22.93;18.40;;;17.60;99.90;;;;;;5037796;28;20440;-58
2022/08/18 03:02:38;;;;;;;20.77;17.43;;;17.60;99.90;;;;;;5038902;28;20514;-59
2022/08/18 03:05:05;;;;;;;23.43;18.80;;;17.60;99.90;;;;;;5038467;28;20997;-60
2022/08/18 03:07:30;;;;;;;22.93;18.43;;;17.60;99.90;;;;;;5035451;28;20198;-60
2022/08/18 03:09:56;;;;;;;22.47;18.97;;;17.60;99.90;;;;;;5052886;28;20413;-59
2022/08/18 03:12:21;;;;;;;23.60;20.13;;;17.60;99.90;;;;;;5050305;28;20197;-60
2022/08/18 03:14:47;;;;;;;23.13;20.63;;;17.60;99.90;;;;;;5046690;28;20218;-60
2022/08/18 03:17:13;;;;;;;26.07;19.93;;;17.60;99.90;;;;;;5052724;28;20178;-59
2022/08/18 03:19:40;;;;;;;27.27;19.60;;;17.60;99.90;;;;;;5052850;28;20182;-60
2022/08/18 03:22:07;;;;;;;24.73;21.13;;;17.60;99.90;;;;;;5052504;28;20493;-59
2022/08/18 03:24:33;;;;;;;26.20;20.93;;;17.60;99.90;;;;;;5052455;28;20421;-60
2022/08/18 03:27:03;;;;;;;23.90;21.03;;;17.60;99.90;;;;;;5052247;28;20520;-59
2022/08/18 03:29:28;;;;;;;21.63;18.63;;;17.60;99.90;;;;;;5049006;28;20476;-60
2022/08/18 03:31:54;;;;;;;22.47;20.07;;;17.60;99.90;;;;;;5032654;28;20406;-59
2022/08/18 03:34:19;;;;;;;23.23;20.43;;;17.70;99.90;;;;;;5032853;28;20187;-59
2022/08/18 03:36:45;;;;;;;24.10;20.00;;;17.70;99.90;;;;;;5032580;28;20189;-59
2022/08/18 03:39:12;;;;;;;26.63;20.10;;;17.70;99.90;;;;;;5041877;28;20244;-59
2022/08/18 03:41:41;;;;;;;22.90;19.73;;;17.70;99.90;;;;;;5037499;28;21170;-59
2022/08/18 03:44:08;;;;;;;22.70;19.33;;;17.60;99.90;;;;;;5049739;28;20933;-59
2022/08/18 03:46:34;;;;;;;23.23;20.77;;;17.60;99.90;;;;;;5044487;28;20453;-59
2022/08/18 03:49:00;;;;;;;25.20;20.47;;;17.60;99.90;;;;;;5043798;28;20495;-59
2022/08/18 03:51:30;;;;;;;22.43;19.50;;;17.60;99.90;;;;;;5049329;28;20862;-59
2022/08/18 03:53:59;;;;;;;24.70;20.57;;;17.60;99.90;;;;;;5048401;28;20437;-59
2022/08/18 03:56:27;;;;;;;22.20;19.50;;;17.60;99.90;;;;;;5039339;28;20535;-59
2022/08/18 03:58:55;;;;;;;22.03;19.73;;;17.60;99.90;;;;;;5037470;28;20433;-59
2022/08/18 04:01:24;;;;;;;23.93;19.93;;;17.60;99.90;;;;;;5035901;28;20441;-60
2022/08/18 04:03:55;;;;;;;27.47;21.70;;;17.60;99.90;;;;;;5036422;28;20485;-59
2022/08/18 04:06:25;;;;;;;27.57;21.23;;;17.60;99.90;;;;;;5032913;28;20468;-59
2022/08/18 04:08:55;;;;;;;25.17;20.00;;;17.60;99.90;;;;;;5031950;28;20414;-59
2022/08/18 04:11:22;;;;;;;20.50;18.30;;;17.60;99.90;;;;;;5045527;28;20443;-59
2022/08/18 04:13:48;;;;;;;29.27;20.53;;;17.60;99.90;;;;;;5049356;28;20453;-55
2022/08/18 04:16:15;;;;;;;23.80;18.67;;;17.60;99.90;;;;;;5045681;28;20442;-59
2022/08/18 04:18:40;;;;;;;25.93;20.17;;;17.60;99.90;;;;;;5031843;28;20417;-59
2022/08/18 04:21:09;;;;;;;22.33;19.80;;;17.60;99.90;;;;;;5049714;28;20440;-59
2022/08/18 04:23:38;;;;;;;25.33;19.73;;;17.70;99.90;;;;;;5038049;28;20239;-60
2022/08/18 04:26:06;;;;;;;27.67;20.40;;;17.60;99.90;;;;;;5046777;28;20448;-59
2022/08/18 04:28:33;;;;;;;27.03;20.20;;;17.70;99.90;;;;;;5031700;28;20410;-59
2022/08/18 04:31:08;;;;;;;22.73;17.90;;;17.70;99.90;;;;;;5046305;28;20524;-59
2022/08/18 04:33:34;;;;;;;22.40;19.20;;;17.80;99.90;;;;;;5051105;28;20424;-59
2022/08/18 04:36:07;;;;;;;27.27;20.20;;;17.80;99.90;;;;;;5051736;28;20419;-59
2022/08/18 04:38:33;;;;;;;24.27;19.97;;;17.90;99.90;;;;;;5051832;28;20961;-58
2022/08/18 04:40:59;;;;;;;22.03;19.60;;;17.90;99.90;;;;;;5040060;28;20454;-59
2022/08/18 04:43:25;;;;;;;24.23;17.90;;;18.00;99.90;;;;;;5041959;28;20621;-59
2022/08/18 04:45:50;;;;;;;20.90;17.73;;;18.10;99.90;;;;;;5049670;28;20451;-59
2022/08/18 04:48:16;;;;;;;23.20;18.73;;;18.10;99.90;;;;;;5049055;28;20222;-58
2022/08/18 04:50:43;;;;;;;23.97;17.53;;;18.10;99.90;;;;;;5049519;28;20193;-59
2022/08/18 04:55:54;;;;;;;19.20;17.10;;;18.20;99.90;;;;;;5034630;28;20472;-57
2022/08/18 04:58:23;;;;;;;30.90;19.40;;;18.30;99.90;;;;;;5043583;28;20441;-58
2022/08/18 05:00:57;;;;;;;19.30;17.30;;;18.40;99.90;;;;;;5050924;28;20417;-58
2022/08/18 05:03:25;;;;;;;27.17;19.50;;;18.40;99.90;;;;;;5048440;28;20480;-59
2022/08/18 05:05:54;;;;;;;20.17;17.70;;;18.50;99.90;;;;;;5049748;28;21098;-58
2022/08/18 05:08:21;;;;;;;20.07;17.97;;;18.50;99.90;;;;;;5049440;28;20449;-58
2022/08/18 05:10:47;;;;;;;21.73;18.60;;;18.60;99.90;;;;;;5044456;28;20456;-58
2022/08/18 05:13:16;;;;;;;19.53;17.07;;;18.70;99.90;;;;;;5039212;28;20445;-58
2022/08/18 05:15:42;;;;;;;23.83;19.70;;;18.80;99.90;;;;;;5044418;28;20445;-57
2022/08/18 05:18:08;;;;;;;25.70;20.67;;;18.80;99.90;;;;;;5030933;28;20418;-58
2022/08/18 05:20:35;;;;;;;23.90;19.97;;;18.90;99.90;;;;;;5033343;28;20191;-58
2022/08/18 05:23:01;;;;;;;22.70;19.70;;;19.00;99.90;;;;;;5043293;28;20503;-58
2022/08/18 05:25:28;;;;;;;21.63;19.10;;;19.00;99.90;;;;;;5047324;28;20441;-58
2022/08/18 05:27:54;;;;;;;29.47;20.87;;;19.10;99.90;;;;;;5048178;28;20901;-58
2022/08/18 05:30:20;;;;;;;23.93;20.20;;;19.10;99.90;;;;;;5050045;28;20440;-58
2022/08/18 05:32:46;;;;;;;25.03;20.80;;;19.30;99.90;;;;;;5045480;28;20440;-53
2022/08/18 05:35:21;;;;;;;24.63;20.33;;;19.30;99.90;;;;;;5043143;28;20205;-54
2022/08/18 05:38:20;;;;;;;27.33;21.03;;;19.40;99.90;;;;;;5048540;28;20190;-54
2022/08/18 05:41:06;;;;;;;29.43;22.57;;;19.50;99.90;;;;;;5038136;28;20526;-54
2022/08/18 05:43:32;;;;;;;24.50;21.10;;;19.60;99.90;;;;;;5037589;28;20504;-54
2022/08/18 05:46:01;;;;;;;22.83;19.90;;;19.70;99.90;;;;;;5047596;28;20471;-54
2022/08/18 05:48:27;;;;;;;23.97;20.00;;;19.80;93.00;;;;;;5048293;28;20448;-54
2022/08/18 05:50:55;;;;;;;22.03;18.97;;;19.80;30.00;;;;;;5046538;28;20452;-54
2022/08/18 05:56:45;;;;;;;22.87;19.07;;;19.90;1.00;;;;;;5041343;28;20197;-54
2022/08/18 05:58:56;;;;;;;19.97;17.60;;;20.00;1.00;;;;;;5036502;28;20455;-54
2022/08/18 06:01:27;;;;;;;23.70;18.33;;;20.00;1.00;;;;;;5047611;28;20501;-55
2022/08/18 06:04:07;;;;;;;25.57;16.50;;;20.00;1.00;;;;;;5040584;28;20977;-55
2022/08/18 06:06:35;;;;;;;22.83;17.63;;;20.10;1.00;;;;;;5045567;28;20925;-55
2022/08/18 06:09:13;;;;;;;22.27;17.40;;;20.10;1.00;;;;;;5051543;28;20408;-54
2022/08/18 06:11:38;;;;;;;19.83;16.30;;;20.10;1.00;;;;;;5051853;28;20447;-54
2022/08/18 06:14:04;;;;;;;22.40;17.73;;;20.10;1.00;;;;;;5043124;28;20517;-55
2022/08/18 06:16:33;;;;;;;22.13;18.40;;;20.20;1.00;;;;;;5051118;28;20269;-55
2022/08/18 06:19:26;;;;;;;23.63;18.67;;;20.30;1.00;;;;;;5042832;28;20437;-55
2022/08/18 06:21:55;;;;;;;22.50;18.03;;;20.40;1.00;;;;;;5032703;28;20574;-55
2022/08/18 06:24:20;;;;;;;39.67;19.00;;;20.60;1.00;;;;;;5046301;28;20441;-55
2022/08/18 06:26:55;;;;;;;19.27;17.23;;;20.70;99.90;;;;;;5049729;28;20443;-55
2022/08/18 06:29:41;;;;;;;19.33;16.57;;;20.90;99.90;;;;;;5042473;28;20227;-56
2022/08/18 06:32:13;;;;;;;20.53;17.40;;;21.00;1.00;;;;;;5040567;28;20556;-54
2022/08/18 06:34:41;;;;;;;21.53;18.60;;;20.90;1.00;;;;;;5043130;28;20449;-54
2022/08/18 06:37:18;;;;;;;24.73;19.20;;;20.90;1.00;;;;;;5053504;28;20409;-54
2022/08/18 06:39:47;;;;;;;26.97;21.43;;;20.80;1.00;;;;;;5051913;28;20452;-54
2022/08/18 06:42:20;;;;;;;27.00;22.37;;;20.80;1.00;;;;;;5051038;28;20526;-54
2022/08/18 06:44:53;;;;;;;26.40;23.17;;;20.70;1.00;;;;;;5049933;28;20448;-55
2022/08/18 06:47:37;;;;;;;30.30;23.40;;;20.70;1.00;;;;;;5040768;28;20552;-54
2022/08/18 06:50:10;;;;;;;36.53;27.97;;;20.70;1.00;;;;;;5046097;28;20468;-54
2022/08/18 06:52:38;;;;;;;38.70;28.87;;;20.70;1.00;;;;;;5050390;28;20473;-55
2022/08/18 06:55:14;;;;;;;37.30;28.77;;;20.70;1.00;;;;;;5048833;28;20854;-54
2022/08/18 06:58:02;;;;;;;42.10;29.50;;;20.80;99.90;;;;;;5046802;28;20502;-54
2022/08/18 07:00:31;;;;;;;46.70;31.43;;;20.80;99.90;;;;;;5045201;28;21150;-54
2022/08/18 07:03:11;;;;;;;48.87;33.40;;;20.80;1.00;;;;;;5049601;28;20832;-54
2022/08/18 07:05:57;;;;;;;51.17;35.30;;;20.80;99.90;;;;;;5048233;28;20460;-53
2022/08/18 07:08:40;;;;;;;55.77;34.43;;;20.80;3.20;;;;;;5046471;28;20788;-54
2022/08/18 07:11:21;;;;;;;57.90;35.47;;;20.70;99.90;;;;;;5044578;28;20453;-54
2022/08/18 07:13:50;;;;;;;57.20;35.20;;;20.70;99.90;;;;;;5050875;28;20926;-57
2022/08/18 07:16:20;;;;;;;52.20;31.63;;;20.70;99.90;;;;;;5047773;28;20526;-54
2022/08/18 07:18:46;;;;;;;60.13;36.57;;;20.60;99.90;;;;;;5046359;28;20449;-54
2022/08/18 07:21:27;;;;;;;65.27;36.67;;;20.70;99.90;;;;;;5050227;28;20433;-54
2022/08/18 07:23:59;;;;;;;64.33;36.10;;;20.70;99.90;;;;;;5050213;28;20206;-54
2022/08/18 07:26:25;;;;;;;56.07;34.50;;;20.70;99.90;;;;;;5049944;28;20504;-54
2022/08/18 07:28:52;;;;;;;52.30;32.50;;;20.70;1.50;;;;;;5049313;28;20762;-53
2022/08/18 07:31:23;;;;;;;50.50;32.10;;;20.70;1.00;;;;;;5049685;28;20186;-52
2022/08/18 07:34:18;;;;;;;48.37;32.60;;;20.50;1.00;;;;;;5050326;28;20439;-54
2022/08/18 07:36:53;;;;;;;53.03;33.97;;;20.40;95.20;;;;;;5046937;28;20470;-54
2022/08/18 07:39:29;;;;;;;55.37;33.47;;;20.30;99.90;;;;;;5049159;28;20932;-54
2022/08/18 07:42:04;;;;;;;54.63;34.23;;;20.10;99.90;;;;;;5046853;28;20446;-53
2022/08/18 07:45:01;;;;;;;52.93;32.70;;;20.00;99.90;;;;;;5047868;28;20466;-54
2022/08/18 07:47:32;;;;;;;49.50;31.73;;;20.00;99.90;;;;;;5045511;28;20517;-54
2022/08/18 07:49:58;;;;;;;57.63;31.90;;;20.00;1.00;;;;;;5048742;28;20547;-54
2022/08/18 07:52:30;;;;;;;45.43;29.50;;;20.10;1.00;;;;;;5048032;28;20527;-54
2022/08/18 07:55:29;;;;;;;47.90;31.83;;;20.20;1.00;;;;;;5048377;28;20194;-54
2022/08/18 07:58:34;;;;;;;49.03;30.60;;;20.30;1.00;;;;;;5045394;28;20413;-54
2022/08/18 08:01:12;;;;;;;51.07;32.00;;;20.20;99.90;;;;;;5043356;28;20432;-55
2022/08/18 08:03:43;;;;;;;56.43;32.97;;;20.00;99.90;;;;;;5049317;28;20460;-54
2022/08/18 08:06:32;;;;;;;59.83;34.23;;;20.00;99.90;;;;;;5048636;28;20539;-54
2022/08/18 08:09:28;;;;;;;70.97;35.10;;;20.00;1.00;;;;;;5048676;28;20449;-54
2022/08/18 08:12:08;;;;;;;81.53;37.77;;;20.00;1.00;;;;;;5039084;28;20465;-53
2022/08/18 08:14:50;;;;;;;71.07;35.87;;;20.00;1.00;;;;;;5050075;28;21091;-54
2022/08/18 08:18:01;;;;;;;67.17;33.90;;;20.10;1.00;;;;;;5045735;28;20424;-54
2022/08/18 08:20:47;;;;;;;66.07;34.50;;;20.20;1.00;;;;;;5028668;28;20483;-53
2022/08/18 08:23:28;;;;;;;62.03;32.27;;;20.40;1.00;;;;;;5044769;28;20527;-54
2022/08/18 08:26:21;;;;;;;58.27;32.07;;;20.60;99.90;;;;;;5046226;28;20444;-54
2022/08/18 08:29:01;;;;;;;62.70;32.10;;;20.70;99.90;;;;;;5047835;28;20448;-54
2022/08/18 08:31:43;;;;;;;52.87;30.27;;;20.80;99.90;;;;;;5043163;28;20433;-53
2022/08/18 08:34:21;;;;;;;50.80;28.67;;;21.00;1.00;;;;;;5044695;28;20415;-54
2022/08/18 08:36:49;;;;;;;49.33;28.50;;;21.20;99.90;;;;;;5047005;28;20464;-53
2022/08/18 08:39:37;;;;;;;40.70;25.63;;;21.30;1.00;;;;;;5048765;28;20413;-54
2022/08/18 08:42:24;;;;;;;48.03;28.77;;;21.50;99.90;;;;;;5045014;28;20464;-53
2022/08/18 08:44:59;;;;;;;45.73;27.50;;;21.60;3.40;;;;;;5046592;28;20437;-54
2022/08/18 08:47:54;;;;;;;43.10;26.80;;;21.80;1.00;;;;;;5043953;28;20478;-53
2022/08/18 08:50:25;;;;;;;42.10;28.27;;;21.70;1.00;;;;;;5048981;28;20413;-53
2022/08/18 08:53:09;;;;;;;47.93;27.50;;;21.70;99.90;;;;;;5048095;28;20789;-52
2022/08/18 08:55:40;;;;;;;46.70;28.70;;;21.90;19.30;;;;;;5044107;28;20444;-53
2022/08/18 08:58:21;;;;;;;44.97;27.80;;;22.00;1.00;;;;;;5048376;28;20440;-52
2022/08/18 09:00:49;;;;;;;46.47;26.63;;;22.10;1.00;;;;;;5044947;28;20459;-53
2022/08/18 09:03:48;;;;;;;42.40;27.13;;;22.40;1.00;;;;;;5048461;28;20477;-52
2022/08/18 09:06:36;;;;;;;40.50;26.40;;;22.60;1.00;;;;;;5040090;28;20453;-52
2022/08/18 09:09:07;;;;;;;39.60;25.10;;;22.80;1.00;;;;;;5048361;28;20487;-52
2022/08/18 09:11:50;;;;;;;40.90;27.23;;;22.90;1.00;;;;;;5041969;28;20480;-52
2022/08/18 09:14:47;;;;;;;42.10;25.10;;;22.90;1.00;;;;;;5047118;28;20941;-53
2022/08/18 09:17:27;;;;;;;40.90;28.63;;;23.10;1.00;;;;;;5044775;28;20440;-52
2022/08/18 09:20:34;;;;;;;42.63;28.30;;;23.10;1.00;;;;;;5045969;28;21282;-52
2022/08/18 09:23:16;;;;;;;35.40;25.80;;;22.90;1.00;;;;;;5047804;28;20538;-52
2022/08/18 09:25:46;;;;;;;36.67;27.40;;;22.90;1.00;;;;;;5043441;28;21079;-52
2022/08/18 09:28:23;;;;;;;40.13;26.43;;;23.00;1.00;;;;;;5047981;28;20421;-52
2022/08/18 09:31:01;;;;;;;41.53;27.57;;;23.20;1.00;;;;;;5044691;28;20452;-53
2022/08/18 09:33:45;;;;;;;42.23;27.83;;;23.30;1.00;;;;;;5048238;28;20882;-52
2022/08/18 09:36:29;;;;;;;49.97;31.10;;;23.40;1.00;;;;;;5042561;28;20993;-52
2022/08/18 09:41:55;;;;;;;45.20;32.27;;;23.60;1.00;;;;;;5045419;28;20456;-51
2022/08/18 09:44:45;;;;;;;45.77;31.47;;;23.60;1.00;;;;;;5046053;28;20964;-51
2022/08/18 09:47:31;;;;;;;39.43;29.10;;;23.50;1.00;;;;;;5046680;28;20850;-50
2022/08/18 09:50:28;;;;;;;37.17;27.50;;;23.60;1.00;;;;;;5044197;28;20444;-50
2022/08/18 09:52:57;;;;;;;39.77;27.93;;;23.60;1.00;;;;;;5050318;28;20433;-50
2022/08/18 09:55:23;;;;;;;38.43;28.20;;;23.60;1.00;;;;;;5048909;28;20475;-50
2022/08/18 09:58:14;;;;;;;36.43;25.90;;;23.60;1.00;;;;;;5046100;28;20449;-51
2022/08/18 10:00:40;;;;;;;36.10;24.53;;;23.80;1.00;;;;;;5042002;28;20198;-52
2022/08/18 10:03:25;;;;;;;41.23;27.27;;;23.90;1.00;;;;;;5054228;28;20447;-51
2022/08/18 10:06:04;;;;;;;38.93;26.73;;;23.90;1.00;;;;;;5054047;28;20844;-51
2022/08/18 10:09:12;;;;;;;40.50;27.07;;;23.90;1.00;;;;;;5067978;28;20431;-51
2022/08/18 10:11:51;;;;;;;38.63;27.13;;;23.80;1.00;;;;;;5054100;28;20420;-50
2022/08/18 10:14:34;;;;;;;32.90;25.77;;;23.80;1.00;;;;;;5053905;28;20412;-49
2022/08/18 10:17:12;;;;;;;37.80;25.83;;;23.90;1.00;;;;;;5054263;28;20424;-49
2022/08/18 10:20:02;;;;;;;40.77;26.67;;;24.60;1.00;;;;;;5054900;28;20401;-49
2022/08/18 10:22:46;;;;;;;38.13;27.30;;;25.20;1.00;;;;;;5033597;28;20832;-49
2022/08/18 10:25:13;;;;;;;43.60;31.47;;;25.40;99.90;;;;;;5034051;28;20414;-49
2022/08/18 10:27:43;;;;;;;38.23;27.20;;;25.20;99.90;;;;;;5045703;28;20766;-49
2022/08/18 10:30:32;;;;;;;36.87;27.50;;;25.00;99.90;;;;;;5053726;28;20409;-49
2022/08/18 10:32:59;;;;;;;45.83;28.37;;;24.80;99.90;;;;;;5053595;28;20794;-49
2022/08/18 10:35:34;;;;;;;35.63;26.80;;;24.70;99.90;;;;;;5053588;28;20405;-49
2022/08/18 10:38:11;;;;;;;37.70;26.90;;;24.60;99.90;;;;;;5053630;28;20491;-50
2022/08/18 10:40:39;;;;;;;33.83;26.40;;;24.50;99.90;;;;;;5052116;28;20787;-51
2022/08/18 10:43:16;;;;;;;30.17;24.27;;;24.50;99.90;;;;;;5053367;28;20456;-49
2022/08/18 10:45:47;;;;;;;35.90;26.00;;;24.50;99.90;;;;;;5053431;28;20416;-49
2022/08/18 10:48:21;;;;;;;37.53;25.30;;;24.50;99.90;;;;;;5053421;28;20482;-50
2022/08/18 10:50:52;;;;;;;36.23;24.43;;;24.50;99.90;;;;;;5053392;28;20428;-49
2022/08/18 10:53:18;;;;;;;33.20;24.47;;;24.80;99.90;;;;;;5067359;28;20432;-49
2022/08/18 10:55:55;;;;;;;35.30;23.20;;;25.00;1.00;;;;;;5072778;28;20424;-50
2022/08/18 10:58:46;;;;;;;31.73;22.43;;;25.10;1.00;;;;;;5073308;28;20219;-50
2022/08/18 11:01:17;;;;;;;31.40;25.33;;;25.30;1.00;;;;;;5071857;28;20443;-49
2022/08/18 11:04:04;;;;;;;34.67;26.20;;;25.30;99.90;;;;;;5072842;28;20462;-49
2022/08/18 11:06:40;;;;;;;32.53;24.20;;;25.30;99.90;;;;;;5072744;28;21011;-49
2022/08/18 11:09:07;;;;;;;27.33;21.13;;;25.30;99.90;;;;;;5072796;28;20407;-49
2022/08/18 11:11:42;;;;;;;30.73;23.80;;;25.80;99.90;;;;;;5072768;28;20408;-49
2022/08/18 11:14:33;;;;;;;31.80;22.20;;;26.60;99.90;;;;;;5072911;28;20938;-49
2022/08/18 11:17:24;;;;;;;24.90;21.90;;;26.90;99.90;;;;;;5072057;28;20401;-49
2022/08/18 11:19:51;;;;;;;26.27;21.93;;;27.00;99.90;;;;;;5072424;28;20918;-50
2022/08/18 11:22:26;;;;;;;24.00;20.20;;;26.90;99.90;;;;;;5071312;28;20488;-49
2022/08/18 11:24:52;;;;;;;29.17;22.80;;;27.00;99.90;;;;;;5072686;28;20415;-49
2022/08/18 11:27:24;;;;;;;22.47;18.90;;;27.70;99.90;;;;;;5072639;28;20921;-49
2022/08/18 11:29:50;;;;;;;21.67;19.40;;;28.80;99.90;;;;;;5072652;28;20231;-49
2022/08/18 11:32:25;;;;;;;25.90;19.93;;;29.30;99.90;;;;;;5072486;28;20442;-49
2022/08/18 11:35:26;;;;;;;27.00;20.33;;;28.70;99.90;;;;;;5072637;28;20403;-49
2022/08/18 11:38:00;;;;;;;22.13;18.90;;;28.10;99.90;;;;;;5060248;28;20455;-49
2022/08/18 11:40:39;;;;;;;24.10;18.03;;;27.80;99.90;;;;;;5072353;28;20912;-49
2022/08/18 11:43:10;;;;;;;25.60;20.17;;;27.90;99.90;;;;;;5072296;28;20815;-49
2022/08/18 11:45:45;;;;;;;24.40;19.63;;;27.60;99.90;;;;;;5072673;28;20397;-49
2022/08/18 11:48:13;;;;;;;18.23;16.23;;;27.50;99.90;;;;;;5064256;28;20905;-49
2022/08/18 11:50:48;;;;;;;24.60;17.27;;;28.20;99.90;;;;;;5052220;28;20503;-49
2022/08/18 11:53:43;;;;;;;20.90;17.20;;;29.20;99.90;;;;;;5052212;28;20459;-49
2022/08/18 11:56:27;;;;;;;14.33;12.93;;;30.00;99.90;;;;;;5020888;28;20461;-49
2022/08/18 11:58:57;;;;;;;17.97;16.03;;;30.70;99.90;;;;;;5032371;28;20412;-49
2022/08/18 12:01:44;;;;;;;15.60;11.73;;;31.60;99.90;;;;;;5032114;28;20422;-50
2022/08/18 12:04:13;;;;;;;17.33;13.40;;;32.10;99.90;;;;;;5032222;28;20465;-49
2022/08/18 12:07:05;;;;;;;16.47;14.17;;;32.00;99.90;;;;;;5029929;28;20436;-49
2022/08/18 12:09:45;;;;;;;15.30;12.33;;;31.30;99.90;;;;;;5028790;28;20845;-49
2022/08/18 12:12:24;;;;;;;15.83;13.93;;;31.00;99.90;;;;;;5032117;28;20830;-49
2022/08/18 12:15:13;;;;;;;17.30;13.83;;;30.90;99.90;;;;;;5031925;28;20513;-48
2022/08/18 12:17:40;;;;;;;13.73;12.30;;;30.40;99.90;;;;;;5030661;28;20787;-49
2022/08/18 12:20:08;;;;;;;16.13;14.40;;;30.60;99.90;;;;;;5031718;28;20420;-49
2022/08/18 12:22:36;;;;;;;19.93;13.23;;;30.90;99.90;;;;;;5031459;28;21029;-49
2022/08/18 12:25:04;;;;;;;15.67;14.10;;;31.50;99.90;;;;;;5031521;28;20926;-50
2022/08/18 12:27:30;;;;;;;16.67;14.57;;;31.50;99.90;;;;;;5035038;28;20441;-50
2022/08/18 12:29:57;;;;;;;13.37;11.50;;;31.50;99.90;;;;;;5049197;28;20444;-50
2022/08/18 12:32:25;;;;;;;14.50;11.13;;;31.60;99.90;;;;;;5051379;28;20494;-49
2022/08/18 12:34:51;;;;;;;14.70;9.37;;;32.10;99.90;;;;;;5051348;28;20558;-50
2022/08/18 12:37:20;;;;;;;12.67;11.53;;;32.90;99.90;;;;;;5047183;28;21240;-50
2022/08/18 12:39:46;;;;;;;12.93;11.33;;;33.30;99.90;;;;;;5042545;28;20455;-49
2022/08/18 12:42:11;;;;;;;12.67;11.37;;;33.30;99.90;;;;;;5051236;28;20448;-49
2022/08/18 12:44:37;;;;;;;10.67;9.77;;;33.30;99.90;;;;;;5051136;28;20193;-49
2022/08/18 12:47:11;;;;;;;11.27;10.10;;;33.50;99.90;;;;;;5051093;28;20178;-49
2022/08/18 12:49:37;;;;;;;13.93;11.73;;;33.70;99.90;;;;;;5035243;28;20524;-49
2022/08/18 12:52:04;;;;;;;11.30;9.70;;;33.60;99.90;;;;;;5051133;28;20421;-49
2022/08/18 12:54:31;;;;;;;12.83;11.13;;;33.50;99.90;;;;;;5056825;28;20186;-50
2022/08/18 12:56:57;;;;;;;10.73;9.60;;;33.30;99.90;;;;;;5052870;28;20449;-57
2022/08/18 12:59:23;;;;;;;9.93;8.53;;;33.20;99.90;;;;;;5067893;28;20866;-57
2022/08/18 13:01:49;;;;;;;11.43;10.33;;;33.40;99.90;;;;;;5039382;28;20278;-57
2022/08/18 13:04:15;;;;;;;12.17;10.93;;;33.30;99.90;;;;;;5051078;28;20550;-54
2022/08/18 13:06:53;;;;;;;10.37;9.30;;;33.00;99.90;;;;;;5050996;28;20178;-57
2022/08/18 13:09:19;;;;;;;10.70;9.70;;;32.60;99.90;;;;;;5048099;28;20468;-56
2022/08/18 13:11:45;;;;;;;12.20;7.80;;;32.80;99.90;;;;;;5030758;28;20481;-57
2022/08/18 13:14:11;;;;;;;11.23;9.20;;;33.20;99.90;;;;;;5037553;28;20456;-57
2022/08/18 13:16:39;;;;;;;9.83;8.93;;;33.50;99.90;;;;;;5049606;28;20194;-57
2022/08/18 13:19:07;;;;;;;10.80;9.50;;;33.80;99.90;;;;;;5051778;28;20266;-57
2022/08/18 13:21:33;;;;;;;9.53;8.73;;;34.10;99.90;;;;;;5049142;28;20558;-58
2022/08/18 13:23:59;;;;;;;10.73;9.60;;;33.70;99.90;;;;;;5050700;28;20472;-58
2022/08/18 13:26:37;;;;;;;11.63;9.60;;;32.90;99.90;;;;;;5050792;28;20224;-58
2022/08/18 13:29:03;;;;;;;9.93;8.93;;;31.90;99.90;;;;;;5049578;28;20429;-56
2022/08/18 13:31:30;;;;;;;12.93;11.50;;;31.60;99.90;;;;;;5048881;28;20413;-56
2022/08/18 13:33:57;;;;;;;12.67;11.47;;;31.70;99.90;;;;;;5050464;28;20424;-58
2022/08/18 13:36:24;;;;;;;11.53;10.53;;;31.70;99.90;;;;;;5050364;28;20914;-57
2022/08/18 13:38:52;;;;;;;17.47;11.93;;;31.10;99.90;;;;;;5050471;28;20818;-55
2022/08/18 13:41:20;;;;;;;14.33;12.83;;;30.30;99.90;;;;;;5050422;28;20425;-57
2022/08/18 13:43:46;;;;;;;13.77;12.40;;;29.70;99.90;;;;;;5050369;28;20449;-57
2022/08/18 13:46:15;;;;;;;14.47;13.03;;;28.80;99.90;;;;;;5051867;28;20891;-58
2022/08/18 13:48:42;;;;;;;13.83;12.00;;;28.30;99.90;;;;;;5054204;28;20445;-57
2022/08/18 13:51:09;;;;;;;13.40;12.20;;;28.00;99.90;;;;;;5058661;28;20465;-58
2022/08/18 13:53:38;;;;;;;13.80;12.43;;;27.80;99.90;;;;;;5069373;28;20433;-57
2022/08/18 13:56:04;;;;;;;12.90;11.13;;;27.70;99.90;;;;;;5036211;28;20536;-58
2022/08/18 13:58:30;;;;;;;13.13;11.73;;;27.70;99.90;;;;;;5031033;28;20420;-58
2022/08/18 14:01:02;;;;;;;13.87;11.40;;;27.80;99.90;;;;;;5041506;28;20817;-57
2022/08/18 14:03:28;;;;;;;14.13;12.73;;;28.10;99.90;;;;;;5030281;28;20473;-58
2022/08/18 14:05:57;;;;;;;13.30;11.57;;;28.00;99.90;;;;;;5032302;28;20445;-57
2022/08/18 14:08:23;;;;;;;12.60;11.40;;;28.10;99.90;;;;;;5050303;28;20406;-58
2022/08/18 14:10:54;;;;;;;14.00;11.83;;;28.40;99.90;;;;;;5047232;28;20444;-54
2022/08/18 14:13:21;;;;;;;11.33;10.27;;;28.60;99.90;;;;;;5030412;28;20426;-58
2022/08/18 14:15:47;;;;;;;13.90;11.13;;;29.00;99.90;;;;;;5032269;28;20934;-59
2022/08/18 14:18:13;;;;;;;15.00;11.83;;;29.30;99.90;;;;;;5048578;28;20493;-58
2022/08/18 14:28:56;;;;;;;15.20;12.70;;;29.80;99.90;;;;;;5064676;28;20947;-55
2022/08/18 14:31:22;;;;;;;17.20;14.70;;;29.30;99.90;;;;;;5058608;28;20412;-58
2022/08/18 14:33:48;;;;;;;15.70;14.10;;;29.10;99.90;;;;;;5052354;28;20596;-58
2022/08/18 14:36:15;;;;;;;14.80;12.40;;;29.40;99.90;;;;;;5053593;28;20182;-57
2022/08/18 14:38:41;;;;;;;14.10;12.60;;;29.90;99.90;;;;;;5052358;28;20333;-57